This is the latest recevied weather packets stored in our database for station/object DF2AP-13. If no packets are shown the sender has not sent any weather packets the latest 10 day(s).
| Time | Temp. | Humidity | Pressure | Rain* | Wind** | Luminosity | Snow |
|---|---|---|---|---|---|---|---|
| 1777627527 | 18.33° C | 41% | 1030.4 hPa | - | - | - | - |
| 1777626927 | 18.33° C | 42% | 1030.6 hPa | - | - | - | - |
| 1777626327 | 17.78° C | 42% | 1030.6 hPa | - | - | - | - |
| 1777625727 | 17.22° C | 44% | 1030.8 hPa | - | - | - | - |
| 1777625127 | 17.22° C | 44% | 1030.8 hPa | - | - | - | - |
| 1777624527 | 17.22° C | 46% | 1030.9 hPa | - | - | - | - |
| 1777623927 | 16.67° C | 45% | 1031 hPa | - | - | - | - |
| 1777623327 | 16.11° C | 46% | 1031.2 hPa | - | - | - | - |
| 1777622727 | 15.56° C | 47% | 1031.3 hPa | - | - | - | - |
| 1777622127 | 14.44° C | 50% | 1031.4 hPa | - | - | - | - |
| 1777621527 | 13.89° C | 53% | 1031.5 hPa | - | - | - | - |
| 1777620927 | 12.78° C | 54% | 1031.7 hPa | - | - | - | - |
| 1777620327 | 12.22° C | 58% | 1031.9 hPa | - | - | - | - |
| 1777619727 | 11.11° C | 62% | 1032 hPa | - | - | - | - |
| 1777619127 | 9.44° C | 68% | 1032.1 hPa | - | - | - | - |
| 1777618527 | 8.33° C | 73% | 1032.3 hPa | - | - | - | - |
| 1777617932 | 7.22° C | 75% | 1032.3 hPa | - | - | - | - |
| 1777617327 | 6.67° C | 76% | 1032.5 hPa | - | - | - | - |
| 1777616727 | 6.11° C | 78% | 1032.5 hPa | - | - | - | - |
| 1777616127 | 5.56° C | 79% | 1032.6 hPa | - | - | - | - |
| 1777615527 | 5° C | 81% | 1032.6 hPa | - | - | - | - |
| 1777614927 | 4.44° C | 82% | 1032.6 hPa | - | - | - | - |
| 1777614332 | 3.89° C | 83% | 1032.6 hPa | - | - | - | - |
| 1777613727 | 3.33° C | 84% | 1032.6 hPa | - | - | - | - |
| 1777613127 | 3.33° C | 83% | 1032.7 hPa | - | - | - | - |
* Rain since midnight (hover to see other rain measurements)
** Current wind speed in m/s (hover to see current wind gust speed)